Time;durP1;ratioP1;P1;durP2;ratioP2;P2;SDS_P1;SDS_P2;PMS_P1;PMS_P2;Temp;Humidity;BMP_temperature;BMP_pressure;BME280_temperature;BME280_humidity;BME280_pressure;Samples;Min_cycle;Max_cycle;Signal;HPM_P1;HPM_P2
2021/05/06 00:34:16;;;;;;;1.20;1.10;;;12.50;99.90;;;;;;5136214;27;20512;-67
2021/05/06 00:36:42;;;;;;;1.43;1.33;;;12.40;99.90;;;;;;5117879;27;20214;-67
2021/05/06 00:39:14;;;;;;;1.90;1.73;;;12.40;99.90;;;;;;5135881;27;20215;-68
2021/05/06 00:41:59;;;;;;;1.67;1.53;;;12.40;99.90;;;;;;5136391;27;20179;-69
2021/05/06 00:57:59;;;;;;;1.93;1.50;;;12.40;99.90;;;;;;5135498;27;20425;-69
2021/05/06 01:05:45;;;;;;;1.70;1.43;;;12.40;99.90;;;;;;5135263;27;20178;-67
2021/05/06 01:10:55;;;;;;;4.73;1.23;;;12.40;99.90;;;;;;5135476;27;20935;-69
2021/05/06 01:13:26;;;;;;;1.07;0.97;;;12.40;99.90;;;;;;5135379;27;20190;-67
2021/05/06 01:15:53;;;;;;;1.37;1.27;;;12.40;99.90;;;;;;5135344;27;20516;-67
2021/05/06 01:18:19;;;;;;;2.67;1.25;;;12.40;99.90;;;;;;5116767;27;20491;-68
2021/05/06 01:20:49;;;;;;;1.53;1.30;;;12.40;99.90;;;;;;5116736;27;20281;-66
2021/05/06 01:23:19;;;;;;;2.20;1.37;;;12.40;99.90;;;;;;5135087;27;20571;-67
2021/05/06 01:25:54;;;;;;;1.53;1.43;;;12.40;99.90;;;;;;5116981;27;20969;-67
2021/05/06 01:28:24;;;;;;;1.50;1.40;;;12.40;99.90;;;;;;5135111;27;20438;-68
2021/05/06 01:31:16;;;;;;;1.40;1.03;;;12.50;99.90;;;;;;5116644;27;20426;-68
2021/05/06 01:36:11;;;;;;;3.43;1.57;;;12.50;99.90;;;;;;5135306;27;20796;-68
2021/05/06 01:49:51;;;;;;;1.23;1.13;;;12.60;99.90;;;;;;5135041;27;20450;-67
2021/05/06 02:00:27;;;;;;;1.15;1.05;;;12.70;99.90;;;;;;5135068;28;20261;-66
2021/05/06 02:02:53;;;;;;;1.73;1.20;;;12.70;99.90;;;;;;5134515;28;20210;-68
2021/05/06 02:05:19;;;;;;;1.50;1.10;;;12.60;99.90;;;;;;5134734;28;20258;-67
2021/05/06 02:07:46;;;;;;;1.20;1.10;;;12.70;99.90;;;;;;5116093;28;20278;-67
2021/05/06 02:10:16;;;;;;;1.42;1.33;;;12.60;99.90;;;;;;5134702;28;20872;-66
2021/05/06 02:12:42;;;;;;;1.83;1.47;;;12.50;99.90;;;;;;5134507;28;20183;-68
2021/05/06 02:15:17;;;;;;;1.47;1.30;;;12.60;99.90;;;;;;5134545;28;20415;-67
2021/05/06 02:17:44;;;;;;;2.47;1.40;;;12.60;99.90;;;;;;5136381;27;20430;-66
2021/05/06 02:20:10;;;;;;;1.37;1.27;;;12.50;99.90;;;;;;5138807;27;20460;-67
2021/05/06 02:22:36;;;;;;;3.20;1.30;;;12.50;99.90;;;;;;5138539;27;20414;-67
2021/05/06 02:25:03;;;;;;;1.27;1.13;;;12.50;99.90;;;;;;5120134;27;20450;-67
2021/05/06 02:27:28;;;;;;;2.13;1.47;;;12.40;99.90;;;;;;5138384;27;20171;-68
2021/05/06 02:29:54;;;;;;;2.20;1.33;;;12.30;99.90;;;;;;5138302;27;20410;-68
2021/05/06 02:32:20;;;;;;;1.80;1.37;;;12.30;99.90;;;;;;5138476;27;20163;-67
2021/05/06 02:34:45;;;;;;;1.20;1.10;;;12.30;99.90;;;;;;5138248;27;20243;-68
2021/05/06 02:37:12;;;;;;;2.23;1.20;;;12.40;99.90;;;;;;5138330;27;20217;-68
2021/05/06 02:39:38;;;;;;;2.70;1.60;;;12.40;99.90;;;;;;5138055;27;20419;-67
2021/05/06 02:42:03;;;;;;;2.80;1.17;;;12.40;99.90;;;;;;5102898;27;20407;-69
2021/05/06 02:44:29;;;;;;;2.70;1.40;;;12.30;99.90;;;;;;5138113;27;20471;-68
2021/05/06 02:46:56;;;;;;;1.90;1.67;;;12.30;99.90;;;;;;5138579;27;20403;-66
2021/05/06 02:49:22;;;;;;;5.47;1.87;;;12.20;99.90;;;;;;5119583;27;20433;-67
2021/05/06 02:52:14;;;;;;;1.60;1.50;;;12.40;99.90;;;;;;5138538;27;20472;-66
2021/05/06 02:54:39;;;;;;;1.70;1.30;;;12.30;99.90;;;;;;5137188;27;20565;-67
2021/05/06 03:05:08;;;;;;;1.30;1.20;;;12.20;99.90;;;;;;5138237;27;20183;-68
2021/05/06 03:07:36;;;;;;;2.30;1.87;;;12.20;99.90;;;;;;5137638;27;20426;-69
2021/05/06 03:10:30;;;;;;;1.88;1.40;;;12.20;99.90;;;;;;5137821;27;20403;-67
2021/05/06 03:22:40;;;;;;;1.60;1.40;;;12.30;99.90;;;;;;5137919;27;20532;-68
2021/05/06 03:23:55;;;;;;;2.85;1.73;;;12.30;99.90;;;;;;5133267;27;20686;-66
2021/05/06 03:26:21;;;;;;;2.20;2.00;;;12.20;99.90;;;;;;5118853;27;20187;-68
2021/05/06 03:28:54;;;;;;;2.20;1.40;;;12.20;99.90;;;;;;5136769;27;20278;-68
2021/05/06 03:42:14;;;;;;;1.40;1.30;;;12.20;99.90;;;;;;5137634;27;20586;-67
2021/05/06 04:18:50;;;;;;;1.40;0.83;;;14.50;97.30;;;;;;5135259;27;20431;-66
2021/05/06 04:21:40;;;;;;;1.58;0.80;;;13.70;96.30;;;;;;5130110;27;20428;-68
2021/05/06 04:37:38;;;;;;;1.17;0.80;;;13.10;97.40;;;;;;5133709;27;20449;-67
2021/05/06 05:06:28;;;;;;;1.40;0.90;;;12.30;97.30;;;;;;5116233;27;20474;-67
2021/05/06 05:11:47;;;;;;;0.97;0.70;;;12.30;97.80;;;;;;5117968;27;20439;-67
2021/05/06 05:25:15;;;;;;;1.10;1.00;;;12.50;97.50;;;;;;5082143;27;20428;-67
2021/05/06 05:27:41;;;;;;;2.00;0.97;;;12.40;97.80;;;;;;5112936;28;20452;-68
2021/05/06 05:30:08;;;;;;;2.77;0.70;;;12.60;98.10;;;;;;5114344;27;20456;-69
2021/05/06 05:32:33;;;;;;;1.10;0.70;;;12.40;98.70;;;;;;5125625;27;20261;-68
2021/05/06 05:35:04;;;;;;;3.83;2.03;;;12.40;97.40;;;;;;5120125;27;20565;-67
2021/05/06 05:37:41;;;;;;;2.20;1.20;;;12.50;98.10;;;;;;5130479;27;20183;-68
2021/05/06 05:56:07;;;;;;;1.30;1.10;;;12.70;97.70;;;;;;5113216;28;20503;-67
2021/05/06 05:58:33;;;;;;;2.33;1.47;;;12.80;97.20;;;;;;5100220;28;20451;-66
2021/05/06 06:00:59;;;;;;;2.43;1.40;;;12.70;96.80;;;;;;5126762;28;20226;-66
2021/05/06 06:03:24;;;;;;;1.97;1.63;;;12.80;97.30;;;;;;5126985;28;20227;-68
2021/05/06 06:05:53;;;;;;;1.23;1.10;;;12.70;96.80;;;;;;5114737;28;20180;-68
2021/05/06 06:08:22;;;;;;;1.20;0.97;;;12.70;96.90;;;;;;5096837;28;20200;-67
2021/05/06 06:10:47;;;;;;;3.90;1.27;;;12.80;97.30;;;;;;5128345;28;20423;-67
2021/05/06 06:13:13;;;;;;;1.53;0.93;;;12.80;97.10;;;;;;5114758;28;20825;-69
2021/05/06 06:15:50;;;;;;;1.63;1.20;;;12.90;96.60;;;;;;5114410;28;20320;-67
2021/05/06 06:18:52;;;;;;;2.03;1.47;;;13.00;96.30;;;;;;5126888;28;20206;-69
2021/05/06 06:23:38;;;;;;;4.93;1.20;;;12.80;96.20;;;;;;5118087;28;20451;-69
2021/05/06 06:26:04;;;;;;;1.00;1.00;;;12.80;96.20;;;;;;5099695;28;20785;-66
2021/05/06 06:28:37;;;;;;;1.60;1.00;;;12.90;96.10;;;;;;5117276;28;20538;-69
2021/05/06 06:31:04;;;;;;;1.17;1.07;;;13.00;96.50;;;;;;5106528;28;20183;-68
2021/05/06 06:33:29;;;;;;;4.10;1.60;;;13.10;97.30;;;;;;5116335;28;20439;-67
2021/05/06 06:35:55;;;;;;;3.13;1.43;;;13.10;96.60;;;;;;5106082;28;20486;-69
2021/05/06 06:38:21;;;;;;;2.10;1.10;;;13.10;96.20;;;;;;5126773;28;20679;-67
2021/05/06 06:40:46;;;;;;;3.10;1.40;;;13.00;95.40;;;;;;5117373;28;20188;-69
2021/05/06 06:43:12;;;;;;;2.47;1.20;;;13.00;95.50;;;;;;5115022;28;20277;-66
2021/05/06 06:45:38;;;;;;;2.07;1.00;;;12.80;95.80;;;;;;5116059;28;20180;-67
2021/05/06 06:48:03;;;;;;;1.20;1.10;;;13.00;96.10;;;;;;5125353;28;20874;-67
2021/05/06 06:50:29;;;;;;;1.33;1.10;;;13.10;96.10;;;;;;5119113;28;20179;-66
2021/05/06 06:52:55;;;;;;;1.80;1.20;;;13.00;95.50;;;;;;5099068;28;20851;-67
2021/05/06 06:55:21;;;;;;;1.20;0.97;;;13.00;95.90;;;;;;5104778;28;20443;-68
2021/05/06 06:57:47;;;;;;;1.80;0.97;;;13.20;96.10;;;;;;5115637;28;20199;-68
2021/05/06 07:00:13;;;;;;;1.70;1.30;;;13.20;95.80;;;;;;5120786;28;20424;-68
2021/05/06 07:02:39;;;;;;;1.23;1.10;;;13.10;95.90;;;;;;5122982;28;20685;-67
2021/05/06 07:05:05;;;;;;;1.10;0.70;;;13.20;95.60;;;;;;5119815;27;20528;-69
2021/05/06 07:07:31;;;;;;;1.20;1.00;;;13.20;95.80;;;;;;5114403;27;20215;-67
2021/05/06 07:09:58;;;;;;;1.67;1.30;;;13.20;95.70;;;;;;5130381;27;20844;-69
2021/05/06 07:12:23;;;;;;;2.47;1.03;;;13.20;95.50;;;;;;5122694;27;20287;-68
2021/05/06 07:14:49;;;;;;;1.20;1.00;;;13.40;95.20;;;;;;5121016;27;20859;-67
2021/05/06 07:17:15;;;;;;;1.50;1.13;;;13.30;94.90;;;;;;5127178;27;20207;-67
2021/05/06 07:19:40;;;;;;;3.43;1.00;;;13.30;95.30;;;;;;5130004;27;20175;-67
2021/05/06 07:22:06;;;;;;;2.53;1.10;;;13.30;95.00;;;;;;5124863;27;20186;-67
2021/05/06 07:24:32;;;;;;;1.47;1.10;;;13.30;95.30;;;;;;5097302;28;20259;-68
2021/05/06 07:27:00;;;;;;;2.00;1.00;;;13.30;94.90;;;;;;5118135;27;20210;-69
2021/05/06 07:29:26;;;;;;;2.13;1.00;;;13.20;94.40;;;;;;5116830;27;20430;-68
2021/05/06 07:31:53;;;;;;;1.97;1.00;;;13.40;95.00;;;;;;5116019;27;20424;-68
2021/05/06 07:34:19;;;;;;;0.80;0.80;;;13.40;94.50;;;;;;5115103;28;20408;-67
2021/05/06 07:36:44;;;;;;;0.83;0.80;;;13.40;94.30;;;;;;5097307;28;20474;-66
2021/05/06 07:39:11;;;;;;;1.20;1.10;;;13.40;94.00;;;;;;5115381;28;20420;-67
2021/05/06 07:41:37;;;;;;;1.80;1.70;;;13.30;93.90;;;;;;5115596;28;20223;-67
2021/05/06 07:44:03;;;;;;;1.30;1.00;;;13.30;95.00;;;;;;5115097;28;20783;-66
2021/05/06 07:46:28;;;;;;;0.70;0.70;;;13.50;94.00;;;;;;5098258;27;20187;-68
2021/05/06 07:48:54;;;;;;;7.13;5.43;;;13.40;94.10;;;;;;5136384;27;20925;-68
2021/05/06 07:51:20;;;;;;;2.33;1.60;;;13.20;94.60;;;;;;5117416;27;20172;-67
2021/05/06 07:53:49;;;;;;;6.30;4.70;;;13.10;94.20;;;;;;5136558;27;20434;-68
2021/05/06 07:56:15;;;;;;;1.30;1.00;;;13.30;94.40;;;;;;5124065;27;20529;-66
2021/05/06 07:58:41;;;;;;;1.50;1.40;;;13.40;93.60;;;;;;5114579;27;20436;-67
2021/05/06 08:01:07;;;;;;;1.37;1.10;;;13.40;94.00;;;;;;5121986;27;20889;-67
2021/05/06 08:03:33;;;;;;;1.37;1.00;;;13.50;93.60;;;;;;5127102;27;20502;-67
2021/05/06 08:05:59;;;;;;;0.70;0.60;;;13.60;93.80;;;;;;5121836;27;20184;-67
2021/05/06 08:08:25;;;;;;;3.87;0.87;;;13.60;93.50;;;;;;5122650;27;20453;-67
2021/05/06 08:10:52;;;;;;;1.20;1.10;;;13.70;93.90;;;;;;5119831;27;20203;-67
2021/05/06 08:13:21;;;;;;;1.67;1.00;;;13.70;93.90;;;;;;5125530;27;20940;-68
2021/05/06 08:15:47;;;;;;;1.90;1.13;;;13.70;93.40;;;;;;5120022;27;20471;-67
2021/05/06 08:18:13;;;;;;;0.83;0.80;;;13.70;93.70;;;;;;5116347;27;20954;-69
2021/05/06 08:20:41;;;;;;;0.80;0.80;;;13.80;94.00;;;;;;5127762;27;20431;-67
2021/05/06 08:23:10;;;;;;;1.70;1.10;;;13.70;93.00;;;;;;5129410;27;20615;-68
2021/05/06 08:25:36;;;;;;;4.10;2.00;;;13.80;93.60;;;;;;5128249;27;20443;-69
2021/05/06 08:28:01;;;;;;;2.50;1.70;;;13.70;93.50;;;;;;5100345;27;20443;-69
2021/05/06 08:30:27;;;;;;;3.27;1.37;;;13.90;92.90;;;;;;5117905;27;20444;-68
2021/05/06 08:32:52;;;;;;;1.83;1.07;;;14.00;93.10;;;;;;5122319;27;20194;-66
2021/05/06 08:35:18;;;;;;;1.30;1.20;;;14.00;92.80;;;;;;5107904;27;20689;-67
2021/05/06 08:37:43;;;;;;;1.20;0.90;;;14.00;93.10;;;;;;5129047;27;20290;-69
2021/05/06 08:40:09;;;;;;;3.27;1.20;;;13.90;93.90;;;;;;5101131;27;20203;-67
2021/05/06 08:42:35;;;;;;;1.90;1.30;;;14.00;93.00;;;;;;5127130;27;20587;-69
2021/05/06 08:45:03;;;;;;;2.67;1.27;;;14.10;93.10;;;;;;5122935;27;20508;-66
2021/05/06 08:47:29;;;;;;;1.37;1.07;;;13.90;92.60;;;;;;5099592;27;20420;-67
2021/05/06 08:49:54;;;;;;;1.40;1.03;;;14.00;92.60;;;;;;5110305;27;20430;-68
2021/05/06 08:52:20;;;;;;;1.80;1.10;;;14.00;92.90;;;;;;5120301;27;20182;-66
2021/05/06 08:54:48;;;;;;;1.23;1.00;;;14.10;93.50;;;;;;5114954;27;20211;-69
2021/05/06 08:57:15;;;;;;;1.73;1.13;;;14.10;92.40;;;;;;5122277;27;20507;-67
2021/05/06 08:59:41;;;;;;;8.00;3.67;;;13.90;92.00;;;;;;5115627;27;20420;-67
2021/05/06 09:02:06;;;;;;;4.70;2.70;;;14.00;92.40;;;;;;5117890;27;20794;-67
2021/05/06 09:04:32;;;;;;;3.90;1.70;;;14.10;92.20;;;;;;5115058;27;20676;-68
2021/05/06 09:07:00;;;;;;;1.50;1.27;;;14.10;93.00;;;;;;5117304;27;20857;-69
2021/05/06 09:09:27;;;;;;;1.90;1.27;;;14.20;92.40;;;;;;5117593;27;20740;-66
2021/05/06 09:12:06;;;;;;;4.70;1.90;;;14.10;92.20;;;;;;5121925;27;20431;-68
2021/05/06 09:14:43;;;;;;;22.20;11.10;;;14.10;92.30;;;;;;5114401;27;21871;-69
2021/05/06 09:17:28;;;;;;;12.80;9.57;;;14.10;92.40;;;;;;5114603;27;20564;-69
2021/05/06 09:20:10;;;;;;;37.03;20.23;;;13.90;92.50;;;;;;5124622;27;20416;-66
2021/05/06 09:22:37;;;;;;;7.40;5.03;;;14.00;92.60;;;;;;5119950;27;20820;-69
2021/05/06 09:25:24;;;;;;;5.33;3.27;;;14.20;92.50;;;;;;5117341;27;20431;-68
2021/05/06 09:28:06;;;;;;;40.73;24.60;;;13.90;92.50;;;;;;5097939;28;20497;-67
2021/05/06 09:30:49;;;;;;;9.43;5.37;;;14.10;93.30;;;;;;5099162;28;20423;-69
2021/05/06 09:33:18;;;;;;;2.17;1.97;;;14.00;93.60;;;;;;5117045;27;20477;-67
2021/05/06 09:35:49;;;;;;;2.60;1.20;;;14.00;93.80;;;;;;5114024;27;20475;-68
2021/05/06 09:38:29;;;;;;;2.33;1.40;;;14.20;94.00;;;;;;5122272;27;20449;-68
2021/05/06 09:40:57;;;;;;;2.60;2.10;;;14.10;93.20;;;;;;5118655;27;20532;-66
2021/05/06 09:43:26;;;;;;;1.20;0.90;;;14.20;92.90;;;;;;5117092;27;20536;-68
2021/05/06 09:45:53;;;;;;;1.10;1.00;;;14.10;92.50;;;;;;5124927;27;20428;-68
2021/05/06 09:48:21;;;;;;;20.53;13.33;;;14.30;92.40;;;;;;5114852;27;20519;-67
2021/05/06 09:50:50;;;;;;;2.37;2.07;;;14.30;92.40;;;;;;5121733;27;20431;-68
2021/05/06 09:53:23;;;;;;;2.40;2.20;;;14.40;91.20;;;;;;5125710;27;20483;-68
2021/05/06 09:55:55;;;;;;;1.90;1.60;;;14.40;92.00;;;;;;5120800;27;20491;-68
2021/05/06 09:58:28;;;;;;;1.50;1.17;;;14.30;92.10;;;;;;5093961;28;21045;-66
2021/05/06 10:00:55;;;;;;;3.40;1.30;;;14.10;92.00;;;;;;5115582;28;20420;-66
2021/05/06 10:03:34;;;;;;;3.30;2.20;;;14.10;91.60;;;;;;5114906;28;20483;-67
2021/05/06 10:06:21;;;;;;;2.50;1.50;;;14.20;91.90;;;;;;5113419;28;20427;-66
2021/05/06 10:08:47;;;;;;;2.90;1.30;;;14.40;92.10;;;;;;5093579;28;20436;-66
2021/05/06 10:11:16;;;;;;;2.40;1.20;;;14.20;91.40;;;;;;5124057;28;20430;-66
2021/05/06 10:13:44;;;;;;;4.10;1.60;;;14.10;91.60;;;;;;5100845;28;20457;-66
2021/05/06 10:16:10;;;;;;;1.77;1.10;;;14.20;91.40;;;;;;5118449;28;20464;-66
2021/05/06 10:18:42;;;;;;;2.50;1.20;;;14.20;91.60;;;;;;5117168;28;20441;-68
2021/05/06 10:21:14;;;;;;;2.73;1.80;;;14.20;91.40;;;;;;5089158;28;20492;-67
2021/05/06 10:23:42;;;;;;;1.10;1.00;;;14.30;91.70;;;;;;5116487;28;20469;-67
2021/05/06 10:26:08;;;;;;;1.47;1.30;;;14.40;91.20;;;;;;5122093;28;20484;-68
2021/05/06 10:28:35;;;;;;;1.53;1.13;;;14.50;90.50;;;;;;5106394;28;20451;-67
2021/05/06 10:31:07;;;;;;;2.57;1.33;;;14.30;90.50;;;;;;5105485;28;20475;-68
2021/05/06 10:33:36;;;;;;;1.90;1.07;;;14.40;91.10;;;;;;5117024;28;20955;-69
2021/05/06 10:36:06;;;;;;;1.10;0.80;;;14.50;90.80;;;;;;5120214;28;20506;-66
2021/05/06 10:38:39;;;;;;;3.93;2.27;;;14.70;90.60;;;;;;5124942;27;20517;-69
2021/05/06 10:41:22;;;;;;;2.77;1.30;;;14.80;91.70;;;;;;5121246;27;20461;-68
2021/05/06 10:43:54;;;;;;;1.90;1.37;;;14.70;90.40;;;;;;5107154;27;20829;-67
2021/05/06 10:46:19;;;;;;;2.40;1.40;;;14.40;91.10;;;;;;5121489;27;20641;-68
2021/05/06 10:49:00;;;;;;;2.10;1.27;;;14.30;91.80;;;;;;5114768;27;20489;-67
2021/05/06 10:51:45;;;;;;;1.83;1.30;;;14.50;92.60;;;;;;5102601;28;20191;-66
2021/05/06 10:54:29;;;;;;;1.57;1.47;;;14.30;93.20;;;;;;5130792;27;20843;-68
2021/05/06 10:56:55;;;;;;;3.60;1.57;;;14.40;93.40;;;;;;5122975;27;20491;-67
2021/05/06 10:59:26;;;;;;;2.53;1.23;;;14.40;94.10;;;;;;5124939;27;20439;-67
2021/05/06 11:01:55;;;;;;;11.70;6.40;;;14.40;94.10;;;;;;5094471;28;20481;-68
2021/05/06 11:04:35;;;;;;;3.60;1.20;;;14.40;94.70;;;;;;5120713;27;20443;-66
2021/05/06 11:07:10;;;;;;;2.00;1.50;;;14.60;94.20;;;;;;5115089;27;20995;-66
2021/05/06 11:09:42;;;;;;;3.33;1.33;;;14.40;94.60;;;;;;5125460;27;20475;-69
2021/05/06 11:12:17;;;;;;;1.93;1.10;;;14.50;94.30;;;;;;5124381;27;20427;-67
2021/05/06 11:15:01;;;;;;;3.17;1.30;;;14.70;93.40;;;;;;5129111;27;20419;-69
2021/05/06 11:17:44;;;;;;;1.50;1.40;;;14.70;94.50;;;;;;5119055;27;20477;-68
2021/05/06 11:20:11;;;;;;;1.97;1.83;;;14.60;94.50;;;;;;5119778;27;20429;-68
2021/05/06 11:22:43;;;;;;;1.13;1.00;;;14.30;94.10;;;;;;5104576;28;20501;-66
2021/05/06 11:28:00;;;;;;;1.40;1.30;;;14.10;94.60;;;;;;5126868;27;20451;-68
2021/05/06 11:30:30;;;;;;;1.40;1.30;;;14.10;95.10;;;;;;5124724;27;20431;-66
2021/05/06 11:32:56;;;;;;;2.47;1.13;;;14.10;94.80;;;;;;5124530;27;20500;-67
2021/05/06 11:35:21;;;;;;;2.00;1.83;;;14.30;95.30;;;;;;5108552;27;20435;-68
2021/05/06 11:37:53;;;;;;;2.00;1.13;;;14.60;95.80;;;;;;5111572;27;20721;-66
2021/05/06 11:40:26;;;;;;;3.40;1.07;;;14.80;94.80;;;;;;5131762;27;20175;-67
2021/05/06 11:42:53;;;;;;;2.87;1.23;;;14.60;94.50;;;;;;5123900;27;20455;-66
2021/05/06 11:45:28;;;;;;;2.20;1.10;;;14.50;94.90;;;;;;5122007;27;20436;-69
2021/05/06 11:47:57;;;;;;;1.63;1.30;;;14.20;94.80;;;;;;5123109;27;20418;-69
2021/05/06 11:50:24;;;;;;;2.00;1.40;;;14.20;95.20;;;;;;5120649;27;20473;-67
2021/05/06 11:52:51;;;;;;;1.90;1.30;;;14.40;94.80;;;;;;5116431;27;20487;-67
2021/05/06 11:55:33;;;;;;;1.20;1.10;;;14.70;95.10;;;;;;5096759;27;20544;-67
2021/05/06 11:57:59;;;;;;;1.73;1.37;;;15.00;94.80;;;;;;5116010;27;20465;-67
2021/05/06 12:00:28;;;;;;;1.67;1.30;;;15.20;94.00;;;;;;5118513;27;20444;-67
2021/05/06 12:03:12;;;;;;;1.43;1.33;;;15.30;94.10;;;;;;5100073;27;20443;-68
2021/05/06 12:05:47;;;;;;;2.10;1.57;;;15.10;93.80;;;;;;5115808;27;20445;-68
2021/05/06 12:08:12;;;;;;;1.60;1.30;;;15.00;93.30;;;;;;5124438;27;20439;-68
2021/05/06 12:10:40;;;;;;;8.30;5.83;;;15.10;93.30;;;;;;5119497;27;20807;-70
2021/05/06 12:13:05;;;;;;;2.83;2.00;;;15.10;93.40;;;;;;5102017;27;20205;-68
2021/05/06 12:15:31;;;;;;;2.00;1.57;;;15.00;93.70;;;;;;5116624;27;20522;-68
2021/05/06 12:18:23;;;;;;;2.70;1.80;;;15.20;93.00;;;;;;5117250;27;20211;-70
2021/05/06 12:20:54;;;;;;;1.30;1.20;;;15.10;93.60;;;;;;5094020;27;20282;-67
2021/05/06 12:23:21;;;;;;;3.40;1.27;;;15.20;93.30;;;;;;5120254;27;20847;-68
2021/05/06 12:25:48;;;;;;;2.20;1.40;;;15.30;93.70;;;;;;5126502;27;20432;-68
2021/05/06 12:28:13;;;;;;;1.27;1.10;;;15.50;92.50;;;;;;5122850;27;20843;-68
2021/05/06 12:30:39;;;;;;;2.00;1.50;;;15.20;92.70;;;;;;5106772;27;20522;-67
2021/05/06 12:33:05;;;;;;;2.83;1.60;;;15.30;92.60;;;;;;5123717;27;20204;-67
2021/05/06 12:35:31;;;;;;;1.23;1.13;;;15.20;92.10;;;;;;5123667;27;20267;-67
2021/05/06 12:37:56;;;;;;;1.70;1.17;;;15.40;92.00;;;;;;5120829;27;20478;-70
2021/05/06 12:40:27;;;;;;;2.40;1.60;;;15.60;93.60;;;;;;5121504;27;20235;-69
2021/05/06 12:42:53;;;;;;;1.33;1.23;;;15.50;92.60;;;;;;5104690;27;20242;-65
2021/05/06 12:45:19;;;;;;;3.60;2.10;;;15.60;92.50;;;;;;5120231;27;20424;-66
2021/05/06 12:47:48;;;;;;;3.00;1.67;;;15.30;92.20;;;;;;5116674;27;20203;-66
2021/05/06 12:50:30;;;;;;;1.73;1.60;;;15.40;92.00;;;;;;5087694;27;21486;-67
2021/05/06 12:53:05;;;;;;;1.90;1.40;;;15.50;92.70;;;;;;5117990;27;20542;-69
2021/05/06 12:55:36;;;;;;;2.53;1.50;;;15.80;92.30;;;;;;5116936;27;20535;-66
2021/05/06 12:58:17;;;;;;;6.10;2.87;;;15.70;91.40;;;;;;5111668;27;20842;-65
2021/05/06 13:00:45;;;;;;;2.00;1.33;;;15.80;92.10;;;;;;5120816;27;20431;-66
2021/05/06 13:03:15;;;;;;;2.80;1.63;;;15.90;91.30;;;;;;5118507;27;20431;-68
2021/05/06 13:05:49;;;;;;;1.87;1.30;;;15.90;91.00;;;;;;5110299;27;20450;-67
2021/05/06 13:08:15;;;;;;;3.23;1.27;;;16.40;92.20;;;;;;5118684;27;20806;-67
2021/05/06 13:10:43;;;;;;;1.67;0.90;;;16.70;90.90;;;;;;5119929;27;20432;-67
2021/05/06 13:13:12;;;;;;;1.47;1.20;;;16.80;90.10;;;;;;5116069;27;20467;-67
2021/05/06 13:15:46;;;;;;;1.43;1.17;;;16.70;88.20;;;;;;5117222;27;20411;-66
2021/05/06 13:18:13;;;;;;;1.00;1.00;;;16.90;89.80;;;;;;5120443;27;20432;-70
2021/05/06 13:20:39;;;;;;;1.37;1.17;;;16.40;90.20;;;;;;5121472;27;20844;-68
2021/05/06 13:23:12;;;;;;;1.50;1.20;;;16.30;89.40;;;;;;5121029;27;20451;-68
2021/05/06 13:25:42;;;;;;;1.40;1.30;;;16.70;90.00;;;;;;5119191;27;20420;-66
2021/05/06 13:28:11;;;;;;;1.30;1.20;;;17.00;88.60;;;;;;5119299;27;20463;-66
2021/05/06 13:30:37;;;;;;;2.10;1.37;;;17.30;89.80;;;;;;5098041;27;20431;-67
2021/05/06 13:33:12;;;;;;;1.47;1.30;;;17.60;90.30;;;;;;5123376;27;21013;-66
2021/05/06 13:35:38;;;;;;;4.07;1.17;;;17.50;87.10;;;;;;5114852;27;20228;-69
2021/05/06 13:38:04;;;;;;;1.50;1.40;;;17.20;88.60;;;;;;5121057;27;20820;-68
2021/05/06 13:40:30;;;;;;;1.17;1.07;;;17.50;87.20;;;;;;5124294;27;20191;-67
2021/05/06 13:42:56;;;;;;;3.70;1.57;;;17.70;90.20;;;;;;5116514;27;20208;-67
2021/05/06 13:45:22;;;;;;;1.63;1.30;;;17.60;88.00;;;;;;5107258;27;20836;-69
2021/05/06 13:47:48;;;;;;;2.30;1.17;;;17.50;87.40;;;;;;5084765;28;20211;-69
2021/05/06 13:50:18;;;;;;;8.83;5.13;;;17.80;87.40;;;;;;5107222;28;20181;-69
2021/05/06 13:52:44;;;;;;;20.60;14.37;;;17.10;86.60;;;;;;5098576;28;20486;-69
2021/05/06 13:55:11;;;;;;;2.40;1.80;;;17.00;88.10;;;;;;5113840;28;20475;-66
2021/05/06 13:57:37;;;;;;;1.80;1.70;;;17.10;88.50;;;;;;5099373;28;20480;-67
2021/05/06 14:00:04;;;;;;;1.93;1.37;;;16.70;86.60;;;;;;5114194;27;20493;-66
2021/05/06 14:02:30;;;;;;;7.17;2.00;;;16.80;86.70;;;;;;5105493;28;20473;-66
2021/05/06 14:04:55;;;;;;;1.83;1.73;;;16.90;87.10;;;;;;5125785;28;21015;-69
2021/05/06 14:07:21;;;;;;;2.53;1.60;;;17.00;86.80;;;;;;5095414;28;20257;-67
2021/05/06 14:09:48;;;;;;;1.57;1.47;;;17.50;87.30;;;;;;5115537;28;20254;-67
2021/05/06 14:12:14;;;;;;;2.60;1.80;;;17.50;85.30;;;;;;5099160;27;20187;-69
2021/05/06 14:14:39;;;;;;;1.80;1.30;;;17.80;85.70;;;;;;5098278;27;20458;-67
2021/05/06 14:17:05;;;;;;;1.93;1.40;;;17.80;85.00;;;;;;5118596;27;20200;-69
2021/05/06 14:19:31;;;;;;;1.93;1.20;;;17.70;86.40;;;;;;5116704;27;20199;-68
2021/05/06 14:21:56;;;;;;;3.60;1.40;;;17.80;85.20;;;;;;5105160;27;20655;-68
2021/05/06 14:24:22;;;;;;;1.70;1.40;;;18.00;84.60;;;;;;5120384;27;20219;-66
2021/05/06 14:26:49;;;;;;;4.10;1.20;;;18.00;83.00;;;;;;5123412;27;21401;-67
2021/05/06 14:29:19;;;;;;;2.47;1.47;;;18.20;82.40;;;;;;5120213;27;20199;-69
2021/05/06 14:31:46;;;;;;;4.50;1.60;;;18.30;83.50;;;;;;5120356;27;22028;-68
2021/05/06 14:34:13;;;;;;;3.00;1.73;;;18.20;81.50;;;;;;5120088;27;20490;-66
2021/05/06 14:36:39;;;;;;;3.73;3.43;;;18.00;82.40;;;;;;5120489;27;20505;-68
2021/05/06 14:39:05;;;;;;;3.07;2.77;;;17.80;82.50;;;;;;5102879;27;20533;-68
2021/05/06 14:41:31;;;;;;;3.80;3.40;;;17.80;83.60;;;;;;5097349;27;20192;-69
2021/05/06 14:43:57;;;;;;;8.13;6.90;;;17.40;84.70;;;;;;5122814;27;20972;-69
2021/05/06 14:46:23;;;;;;;2.57;1.70;;;17.40;85.20;;;;;;5111201;28;20657;-67
2021/05/06 14:48:50;;;;;;;2.03;1.60;;;16.70;84.30;;;;;;5117760;27;20540;-67
2021/05/06 14:51:15;;;;;;;3.60;2.33;;;17.00;84.30;;;;;;5114875;28;20803;-68
2021/05/06 14:53:41;;;;;;;3.10;1.70;;;17.30;85.50;;;;;;5111053;27;20871;-67
2021/05/06 14:56:07;;;;;;;2.13;1.73;;;17.10;84.20;;;;;;5102230;28;20331;-68
2021/05/06 14:58:32;;;;;;;1.30;1.20;;;17.20;84.90;;;;;;5116343;27;20200;-68
2021/05/06 15:00:58;;;;;;;1.90;1.60;;;17.50;84.60;;;;;;5123022;27;20264;-67
2021/05/06 15:03:27;;;;;;;1.63;1.53;;;17.70;83.90;;;;;;5115721;27;20611;-68
2021/05/06 15:05:52;;;;;;;1.77;1.67;;;17.90;83.00;;;;;;5117072;27;20286;-68
2021/05/06 15:08:18;;;;;;;2.67;2.00;;;17.90;85.00;;;;;;5123109;27;20531;-67
2021/05/06 15:10:44;;;;;;;2.03;1.70;;;18.10;83.50;;;;;;5115212;27;20689;-67
2021/05/06 15:13:10;;;;;;;2.60;2.20;;;17.90;81.80;;;;;;5110025;27;20198;-68
2021/05/06 15:15:36;;;;;;;3.60;1.80;;;17.40;81.90;;;;;;5118489;27;20434;-69
2021/05/06 15:18:02;;;;;;;2.40;1.73;;;17.60;83.50;;;;;;5116932;27;20451;-67
2021/05/06 15:20:27;;;;;;;3.50;2.00;;;17.70;82.20;;;;;;5128562;27;20264;-68
2021/05/06 15:22:54;;;;;;;2.93;1.80;;;16.90;82.00;;;;;;5126882;27;20191;-68
2021/05/06 15:25:21;;;;;;;6.43;2.70;;;17.20;81.50;;;;;;5125240;27;20729;-68
2021/05/06 15:27:46;;;;;;;2.63;1.70;;;17.20;81.20;;;;;;5122443;27;20444;-68
2021/05/06 15:30:17;;;;;;;1.70;1.40;;;16.90;81.10;;;;;;5125031;27;20428;-69
2021/05/06 15:32:43;;;;;;;5.07;1.70;;;16.80;80.80;;;;;;5125669;27;20200;-68
2021/05/06 15:35:09;;;;;;;1.63;1.53;;;16.70;82.10;;;;;;5126745;27;20917;-67
2021/05/06 15:37:36;;;;;;;2.10;1.30;;;17.00;81.10;;;;;;5108765;27;20871;-67
2021/05/06 15:40:04;;;;;;;3.60;1.40;;;17.10;81.60;;;;;;5130131;27;20432;-67
2021/05/06 15:42:30;;;;;;;2.63;1.43;;;17.00;80.30;;;;;;5128451;27;20426;-66
2021/05/06 15:44:56;;;;;;;1.33;1.10;;;17.20;81.80;;;;;;5122976;27;20879;-67
2021/05/06 15:47:22;;;;;;;3.30;1.70;;;17.20;82.20;;;;;;5121438;27;20593;-69
2021/05/06 15:49:47;;;;;;;3.20;2.20;;;17.10;82.80;;;;;;5124510;27;20419;-67
2021/05/06 15:52:13;;;;;;;1.50;1.40;;;17.00;83.90;;;;;;5120405;27;20233;-67
2021/05/06 15:54:40;;;;;;;3.37;1.57;;;16.80;85.00;;;;;;5123409;27;20184;-69
2021/05/06 15:57:07;;;;;;;4.73;1.33;;;17.00;84.20;;;;;;5121653;27;20562;-68
2021/05/06 15:59:35;;;;;;;3.07;1.77;;;17.00;83.20;;;;;;5095615;28;20989;-68
2021/05/06 16:02:01;;;;;;;1.97;1.70;;;16.90;83.30;;;;;;5118466;27;20427;-68
2021/05/06 16:04:33;;;;;;;2.17;1.57;;;16.90;82.80;;;;;;5125000;27;20439;-68
2021/05/06 16:07:01;;;;;;;1.73;1.50;;;17.10;83.30;;;;;;5100190;27;20442;-69
2021/05/06 16:09:27;;;;;;;3.03;1.40;;;17.10;82.00;;;;;;5113809;27;20440;-68
2021/05/06 16:11:53;;;;;;;4.13;1.40;;;17.10;81.60;;;;;;5112857;27;20434;-67
2021/05/06 16:14:20;;;;;;;2.00;1.60;;;16.90;81.80;;;;;;5111916;27;20692;-67
2021/05/06 16:16:46;;;;;;;1.73;1.50;;;16.90;81.10;;;;;;5120816;27;20965;-68
2021/05/06 16:19:11;;;;;;;2.10;1.40;;;16.80;81.70;;;;;;5120644;27;20439;-67
2021/05/06 16:21:37;;;;;;;1.80;1.30;;;16.80;81.50;;;;;;5133165;27;20431;-68
2021/05/06 16:24:04;;;;;;;2.97;1.13;;;16.80;82.50;;;;;;5127274;27;20194;-67
2021/05/06 16:26:30;;;;;;;1.83;1.50;;;16.70;79.90;;;;;;5118838;27;20431;-67